This is the latest recevied weather packets stored in our database for station/object N3TJJ-11. If no packets are shown the sender has not sent any weather packets the latest 10 day(s).
| Time | Temp. | Humidity | Pressure | Rain* | Wind** | Luminosity | Snow |
|---|---|---|---|---|---|---|---|
| 1777754150 | 11.11° C | 47% | 1009.9 hPa | 0 mm | - | - | - |
| 1777754032 | 11.11° C | 47% | 1009.8 hPa | 0 mm | - | - | - |
| 1777753518 | 11.67° C | 45% | 1009.9 hPa | 0 mm | - | - | - |
| 1777753430 | 11.67° C | 45% | 1009.9 hPa | 0 mm | - | - | - |
| 1777752956 | 12.22° C | 41% | 1009.9 hPa | 0 mm | - | - | - |
| 1777752831 | 12.22° C | 41% | 1009.9 hPa | 0 mm | - | - | - |
| 1777752710 | 12.22° C | 45% | 1009.9 hPa | 0 mm | - | - | - |
| 1777752231 | 12.22° C | 45% | 1010 hPa | 0 mm | - | - | - |
| 1777751990 | 12.22° C | 45% | 1010 hPa | 0 mm | - | - | - |
| 1777751631 | 11.67° C | 44% | 1010 hPa | 0 mm | - | - | - |
| 1777751270 | 12.22° C | 43% | 1010.2 hPa | 0 mm | - | - | - |
| 1777751031 | 12.22° C | 44% | 1010.2 hPa | 0 mm | - | - | - |
| 1777750550 | 12.22° C | 44% | 1010.3 hPa | 0 mm | - | - | - |
| 1777750431 | 12.22° C | 45% | 1010.3 hPa | 0 mm | - | - | - |
| 1777749830 | 12.78° C | 42% | 1010.5 hPa | 0 mm | - | - | - |
| 1777749231 | 12.78° C | 43% | 1010.6 hPa | 0 mm | - | - | - |
| 1777749110 | 12.22° C | 45% | 1010.7 hPa | 0 mm | - | - | - |
| 1777748631 | 11.67° C | 47% | 1010.9 hPa | 0 mm | - | - | - |
| 1777748390 | 12.22° C | 46% | 1010.9 hPa | 0 mm | - | - | - |
| 1777748031 | 12.78° C | 43% | 1011 hPa | 0 mm | - | - | - |
| 1777747670 | 12.78° C | 44% | 1011 hPa | 0 mm | - | - | - |
| 1777747433 | 12.22° C | 45% | 1011.1 hPa | 0 mm | - | - | - |
| 1777746950 | 12.22° C | 45% | 1011.2 hPa | 0 mm | - | - | - |
| 1777746832 | 12.22° C | 46% | 1011.3 hPa | 0 mm | - | - | - |
| 1777746230 | 12.22° C | 47% | 1011.3 hPa | 0 mm | - | - | - |
* Rain latest hour (hover to see other rain measurements)
** Current wind speed in m/s (hover to see current wind gust speed)